sensor_id;sensor_type;location;lat;lon;timestamp;P1;durP1;ratioP1;P2;durP2;ratioP2
8088;SDS011;57635;49.194;12.104;2023-08-01T00:00:40;5.00;;;4.43;;
8088;SDS011;57635;49.194;12.104;2023-08-01T00:03:07;3.83;;;3.53;;
8088;SDS011;57635;49.194;12.104;2023-08-01T00:05:36;4.53;;;4.00;;
8088;SDS011;57635;49.194;12.104;2023-08-01T00:08:05;4.77;;;3.90;;
8088;SDS011;57635;49.194;12.104;2023-08-01T00:10:32;4.57;;;3.70;;
8088;SDS011;57635;49.194;12.104;2023-08-01T00:13:01;4.63;;;4.03;;
8088;SDS011;57635;49.194;12.104;2023-08-01T00:15:29;4.77;;;4.37;;
8088;SDS011;57635;49.194;12.104;2023-08-01T00:17:57;5.33;;;4.10;;
8088;SDS011;57635;49.194;12.104;2023-08-01T00:20:24;4.20;;;3.90;;
8088;SDS011;57635;49.194;12.104;2023-08-01T00:22:53;4.87;;;4.47;;
8088;SDS011;57635;49.194;12.104;2023-08-01T00:25:21;4.40;;;4.10;;
8088;SDS011;57635;49.194;12.104;2023-08-01T00:27:49;4.40;;;4.10;;
8088;SDS011;57635;49.194;12.104;2023-08-01T00:30:17;4.50;;;4.00;;
8088;SDS011;57635;49.194;12.104;2023-08-01T00:32:45;4.67;;;4.37;;
8088;SDS011;57635;49.194;12.104;2023-08-01T00:35:13;4.50;;;4.10;;
8088;SDS011;57635;49.194;12.104;2023-08-01T00:37:40;5.60;;;4.67;;
8088;SDS011;57635;49.194;12.104;2023-08-01T00:40:10;5.10;;;4.70;;
8088;SDS011;57635;49.194;12.104;2023-08-01T00:42:38;4.80;;;4.40;;
8088;SDS011;57635;49.194;12.104;2023-08-01T00:45:06;4.37;;;3.90;;
8088;SDS011;57635;49.194;12.104;2023-08-01T00:47:35;4.83;;;4.33;;
8088;SDS011;57635;49.194;12.104;2023-08-01T00:50:03;4.33;;;3.97;;
8088;SDS011;57635;49.194;12.104;2023-08-01T00:52:31;5.00;;;4.60;;
8088;SDS011;57635;49.194;12.104;2023-08-01T00:54:59;4.70;;;4.20;;
8088;SDS011;57635;49.194;12.104;2023-08-01T00:57:28;5.80;;;5.20;;
8088;SDS011;57635;49.194;12.104;2023-08-01T00:59:56;4.53;;;4.23;;
8088;SDS011;57635;49.194;12.104;2023-08-01T01:02:24;5.60;;;4.17;;
8088;SDS011;57635;49.194;12.104;2023-08-01T01:04:51;6.70;;;4.50;;
8088;SDS011;57635;49.194;12.104;2023-08-01T01:07:19;4.60;;;4.10;;
8088;SDS011;57635;49.194;12.104;2023-08-01T01:09:48;4.60;;;4.20;;
8088;SDS011;57635;49.194;12.104;2023-08-01T01:12:16;7.20;;;4.60;;
8088;SDS011;57635;49.194;12.104;2023-08-01T01:14:45;7.27;;;5.87;;
8088;SDS011;57635;49.194;12.104;2023-08-01T01:17:13;5.30;;;4.80;;
8088;SDS011;57635;49.194;12.104;2023-08-01T01:19:41;5.13;;;4.50;;
8088;SDS011;57635;49.194;12.104;2023-08-01T01:22:10;5.13;;;4.53;;
8088;SDS011;57635;49.194;12.104;2023-08-01T01:24:38;4.27;;;3.90;;
8088;SDS011;57635;49.194;12.104;2023-08-01T01:27:07;5.27;;;4.60;;
8088;SDS011;57635;49.194;12.104;2023-08-01T01:29:35;5.40;;;4.60;;
8088;SDS011;57635;49.194;12.104;2023-08-01T01:32:03;4.97;;;4.57;;
8088;SDS011;57635;49.194;12.104;2023-08-01T01:34:32;4.67;;;4.27;;
8088;SDS011;57635;49.194;12.104;2023-08-01T01:37:00;6.43;;;5.10;;
8088;SDS011;57635;49.194;12.104;2023-08-01T01:39:29;5.27;;;4.77;;
8088;SDS011;57635;49.194;12.104;2023-08-01T01:41:56;5.83;;;5.00;;
8088;SDS011;57635;49.194;12.104;2023-08-01T01:44:24;5.27;;;4.87;;
8088;SDS011;57635;49.194;12.104;2023-08-01T01:46:52;6.37;;;5.90;;
8088;SDS011;57635;49.194;12.104;2023-08-01T01:49:19;5.03;;;4.63;;
8088;SDS011;57635;49.194;12.104;2023-08-01T01:51:47;6.37;;;4.53;;
8088;SDS011;57635;49.194;12.104;2023-08-01T01:54:15;5.77;;;4.43;;
8088;SDS011;57635;49.194;12.104;2023-08-01T01:56:44;5.23;;;4.77;;
8088;SDS011;57635;49.194;12.104;2023-08-01T01:59:11;6.10;;;5.13;;
8088;SDS011;57635;49.194;12.104;2023-08-01T02:01:39;6.23;;;5.67;;
8088;SDS011;57635;49.194;12.104;2023-08-01T02:04:07;8.27;;;5.10;;
8088;SDS011;57635;49.194;12.104;2023-08-01T02:06:34;6.27;;;5.67;;
8088;SDS011;57635;49.194;12.104;2023-08-01T02:09:02;6.27;;;5.23;;
8088;SDS011;57635;49.194;12.104;2023-08-01T02:11:30;6.10;;;5.43;;
8088;SDS011;57635;49.194;12.104;2023-08-01T02:13:59;6.10;;;5.50;;
8088;SDS011;57635;49.194;12.104;2023-08-01T02:16:28;6.60;;;6.00;;
8088;SDS011;57635;49.194;12.104;2023-08-01T02:18:56;5.73;;;5.23;;
8088;SDS011;57635;49.194;12.104;2023-08-01T02:21:23;5.90;;;5.30;;
8088;SDS011;57635;49.194;12.104;2023-08-01T02:23:51;6.17;;;5.30;;
8088;SDS011;57635;49.194;12.104;2023-08-01T02:26:19;6.70;;;5.43;;
8088;SDS011;57635;49.194;12.104;2023-08-01T02:28:48;7.10;;;6.00;;
8088;SDS011;57635;49.194;12.104;2023-08-01T02:31:17;6.67;;;5.97;;
8088;SDS011;57635;49.194;12.104;2023-08-01T02:33:45;6.30;;;5.80;;
8088;SDS011;57635;49.194;12.104;2023-08-01T02:36:13;6.77;;;6.17;;
8088;SDS011;57635;49.194;12.104;2023-08-01T02:38:40;6.17;;;5.50;;
8088;SDS011;57635;49.194;12.104;2023-08-01T02:41:08;8.67;;;5.73;;
8088;SDS011;57635;49.194;12.104;2023-08-01T02:43:36;7.03;;;6.20;;
8088;SDS011;57635;49.194;12.104;2023-08-01T02:46:04;5.73;;;5.30;;
8088;SDS011;57635;49.194;12.104;2023-08-01T02:48:33;6.27;;;5.70;;
8088;SDS011;57635;49.194;12.104;2023-08-01T02:51:02;7.13;;;5.80;;
8088;SDS011;57635;49.194;12.104;2023-08-01T02:53:29;8.23;;;5.20;;
8088;SDS011;57635;49.194;12.104;2023-08-01T02:55:57;6.10;;;5.60;;
8088;SDS011;57635;49.194;12.104;2023-08-01T02:58:25;6.57;;;5.70;;
8088;SDS011;57635;49.194;12.104;2023-08-01T03:00:53;6.67;;;5.83;;
8088;SDS011;57635;49.194;12.104;2023-08-01T03:03:20;6.43;;;5.83;;
8088;SDS011;57635;49.194;12.104;2023-08-01T03:05:49;7.33;;;5.90;;
8088;SDS011;57635;49.194;12.104;2023-08-01T03:08:17;7.23;;;6.47;;
8088;SDS011;57635;49.194;12.104;2023-08-01T03:10:45;6.27;;;5.67;;
8088;SDS011;57635;49.194;12.104;2023-08-01T03:13:13;6.80;;;6.10;;
8088;SDS011;57635;49.194;12.104;2023-08-01T03:15:41;6.77;;;5.80;;
8088;SDS011;57635;49.194;12.104;2023-08-01T03:18:08;6.17;;;5.57;;
8088;SDS011;57635;49.194;12.104;2023-08-01T03:20:36;6.40;;;5.87;;
8088;SDS011;57635;49.194;12.104;2023-08-01T03:23:05;7.27;;;6.07;;
8088;SDS011;57635;49.194;12.104;2023-08-01T03:25:33;6.80;;;6.10;;
8088;SDS011;57635;49.194;12.104;2023-08-01T03:28:01;7.00;;;6.30;;
8088;SDS011;57635;49.194;12.104;2023-08-01T03:30:31;7.00;;;6.27;;
8088;SDS011;57635;49.194;12.104;2023-08-01T03:32:59;7.03;;;5.60;;
8088;SDS011;57635;49.194;12.104;2023-08-01T03:35:27;6.40;;;5.90;;
8088;SDS011;57635;49.194;12.104;2023-08-01T03:37:55;5.90;;;5.40;;
8088;SDS011;57635;49.194;12.104;2023-08-01T03:40:24;6.47;;;5.87;;
8088;SDS011;57635;49.194;12.104;2023-08-01T03:42:52;7.43;;;6.73;;
8088;SDS011;57635;49.194;12.104;2023-08-01T03:45:20;6.70;;;6.00;;
8088;SDS011;57635;49.194;12.104;2023-08-01T03:47:47;6.40;;;5.80;;
8088;SDS011;57635;49.194;12.104;2023-08-01T03:50:15;6.47;;;5.20;;
8088;SDS011;57635;49.194;12.104;2023-08-01T03:52:43;6.27;;;5.70;;
8088;SDS011;57635;49.194;12.104;2023-08-01T03:55:11;6.27;;;5.67;;
8088;SDS011;57635;49.194;12.104;2023-08-01T03:57:40;7.23;;;5.67;;
8088;SDS011;57635;49.194;12.104;2023-08-01T04:00:09;6.10;;;5.60;;
8088;SDS011;57635;49.194;12.104;2023-08-01T04:02:40;6.20;;;5.63;;
8088;SDS011;57635;49.194;12.104;2023-08-01T04:05:10;5.97;;;5.43;;
8088;SDS011;57635;49.194;12.104;2023-08-01T04:07:38;6.13;;;5.53;;
8088;SDS011;57635;49.194;12.104;2023-08-01T04:10:06;7.10;;;6.50;;
8088;SDS011;57635;49.194;12.104;2023-08-01T04:12:34;8.93;;;6.20;;
8088;SDS011;57635;49.194;12.104;2023-08-01T04:15:04;5.83;;;5.43;;
8088;SDS011;57635;49.194;12.104;2023-08-01T04:17:32;5.57;;;5.17;;
8088;SDS011;57635;49.194;12.104;2023-08-01T04:20:00;6.70;;;6.10;;
8088;SDS011;57635;49.194;12.104;2023-08-01T04:22:27;7.37;;;5.77;;
8088;SDS011;57635;49.194;12.104;2023-08-01T04:24:55;5.53;;;5.03;;
8088;SDS011;57635;49.194;12.104;2023-08-01T04:27:23;5.80;;;5.30;;
8088;SDS011;57635;49.194;12.104;2023-08-01T04:29:51;5.83;;;5.37;;
8088;SDS011;57635;49.194;12.104;2023-08-01T04:32:20;5.77;;;5.27;;
8088;SDS011;57635;49.194;12.104;2023-08-01T04:34:48;6.10;;;5.60;;
8088;SDS011;57635;49.194;12.104;2023-08-01T04:37:16;5.87;;;5.27;;
8088;SDS011;57635;49.194;12.104;2023-08-01T04:39:46;7.17;;;5.20;;
8088;SDS011;57635;49.194;12.104;2023-08-01T04:42:14;6.13;;;5.57;;
8088;SDS011;57635;49.194;12.104;2023-08-01T04:44:42;7.57;;;5.77;;
8088;SDS011;57635;49.194;12.104;2023-08-01T04:47:10;6.53;;;5.90;;
8088;SDS011;57635;49.194;12.104;2023-08-01T04:49:39;8.23;;;6.43;;
8088;SDS011;57635;49.194;12.104;2023-08-01T04:52:07;6.40;;;5.80;;
8088;SDS011;57635;49.194;12.104;2023-08-01T04:54:34;6.83;;;6.20;;
8088;SDS011;57635;49.194;12.104;2023-08-01T04:57:02;6.37;;;5.83;;
8088;SDS011;57635;49.194;12.104;2023-08-01T04:59:30;6.20;;;5.63;;
8088;SDS011;57635;49.194;12.104;2023-08-01T05:01:58;6.83;;;6.20;;
8088;SDS011;57635;49.194;12.104;2023-08-01T05:04:26;7.00;;;6.30;;
8088;SDS011;57635;49.194;12.104;2023-08-01T05:06:55;7.23;;;6.63;;
8088;SDS011;57635;49.194;12.104;2023-08-01T05:09:23;7.13;;;6.43;;
8088;SDS011;57635;49.194;12.104;2023-08-01T05:11:50;6.53;;;5.93;;
8088;SDS011;57635;49.194;12.104;2023-08-01T05:14:18;6.87;;;5.87;;
8088;SDS011;57635;49.194;12.104;2023-08-01T05:16:46;5.93;;;5.43;;
8088;SDS011;57635;49.194;12.104;2023-08-01T05:19:14;6.07;;;5.47;;
8088;SDS011;57635;49.194;12.104;2023-08-01T05:21:41;6.67;;;5.93;;
8088;SDS011;57635;49.194;12.104;2023-08-01T05:24:11;6.30;;;5.73;;
8088;SDS011;57635;49.194;12.104;2023-08-01T05:26:39;6.53;;;5.90;;
8088;SDS011;57635;49.194;12.104;2023-08-01T05:29:07;5.93;;;5.40;;
8088;SDS011;57635;49.194;12.104;2023-08-01T05:31:34;6.63;;;5.83;;
8088;SDS011;57635;49.194;12.104;2023-08-01T05:34:04;6.67;;;5.37;;
8088;SDS011;57635;49.194;12.104;2023-08-01T05:36:32;7.10;;;5.40;;
8088;SDS011;57635;49.194;12.104;2023-08-01T05:38:59;5.30;;;4.90;;
8088;SDS011;57635;49.194;12.104;2023-08-01T05:41:29;5.53;;;5.03;;
8088;SDS011;57635;49.194;12.104;2023-08-01T05:43:58;5.40;;;5.00;;
8088;SDS011;57635;49.194;12.104;2023-08-01T05:46:26;5.80;;;5.30;;
8088;SDS011;57635;49.194;12.104;2023-08-01T05:48:54;5.47;;;4.83;;
8088;SDS011;57635;49.194;12.104;2023-08-01T05:51:22;6.70;;;5.73;;
8088;SDS011;57635;49.194;12.104;2023-08-01T05:53:50;6.20;;;5.70;;
8088;SDS011;57635;49.194;12.104;2023-08-01T05:56:18;5.20;;;4.80;;
8088;SDS011;57635;49.194;12.104;2023-08-01T05:58:47;5.97;;;5.43;;
8088;SDS011;57635;49.194;12.104;2023-08-01T06:01:16;5.70;;;5.07;;
8088;SDS011;57635;49.194;12.104;2023-08-01T06:03:44;5.30;;;4.90;;
8088;SDS011;57635;49.194;12.104;2023-08-01T06:06:12;5.20;;;4.70;;
8088;SDS011;57635;49.194;12.104;2023-08-01T06:08:40;5.70;;;5.20;;
8088;SDS011;57635;49.194;12.104;2023-08-01T06:11:07;5.10;;;4.70;;
8088;SDS011;57635;49.194;12.104;2023-08-01T06:13:35;6.40;;;5.40;;
8088;SDS011;57635;49.194;12.104;2023-08-01T06:16:04;7.87;;;5.67;;
8088;SDS011;57635;49.194;12.104;2023-08-01T06:18:32;5.90;;;5.37;;
8088;SDS011;57635;49.194;12.104;2023-08-01T06:21:00;5.97;;;5.37;;
8088;SDS011;57635;49.194;12.104;2023-08-01T06:23:28;5.77;;;5.27;;
8088;SDS011;57635;49.194;12.104;2023-08-01T06:25:56;5.77;;;5.20;;
8088;SDS011;57635;49.194;12.104;2023-08-01T06:28:24;6.10;;;5.60;;
8088;SDS011;57635;49.194;12.104;2023-08-01T06:30:51;6.77;;;5.40;;
8088;SDS011;57635;49.194;12.104;2023-08-01T06:33:20;6.83;;;6.07;;
8088;SDS011;57635;49.194;12.104;2023-08-01T06:35:48;6.17;;;5.57;;
8088;SDS011;57635;49.194;12.104;2023-08-01T06:38:16;5.13;;;4.47;;
8088;SDS011;57635;49.194;12.104;2023-08-01T06:40:44;5.37;;;4.97;;
8088;SDS011;57635;49.194;12.104;2023-08-01T06:43:11;5.80;;;5.30;;
8088;SDS011;57635;49.194;12.104;2023-08-01T06:45:39;5.80;;;5.30;;
8088;SDS011;57635;49.194;12.104;2023-08-01T06:48:07;6.00;;;5.30;;
8088;SDS011;57635;49.194;12.104;2023-08-01T06:50:36;6.30;;;5.30;;
8088;SDS011;57635;49.194;12.104;2023-08-01T06:53:04;5.93;;;5.23;;
8088;SDS011;57635;49.194;12.104;2023-08-01T06:55:32;5.33;;;4.93;;
8088;SDS011;57635;49.194;12.104;2023-08-01T06:58:00;6.97;;;6.03;;
8088;SDS011;57635;49.194;12.104;2023-08-01T07:00:27;6.07;;;5.47;;
8088;SDS011;57635;49.194;12.104;2023-08-01T07:02:55;5.37;;;4.87;;
8088;SDS011;57635;49.194;12.104;2023-08-01T07:05:23;5.83;;;5.33;;
8088;SDS011;57635;49.194;12.104;2023-08-01T07:07:52;5.77;;;5.20;;
8088;SDS011;57635;49.194;12.104;2023-08-01T07:10:19;6.00;;;5.40;;
8088;SDS011;57635;49.194;12.104;2023-08-01T07:12:47;5.83;;;5.30;;
8088;SDS011;57635;49.194;12.104;2023-08-01T07:15:15;5.70;;;5.30;;
8088;SDS011;57635;49.194;12.104;2023-08-01T07:17:43;6.10;;;5.60;;
8088;SDS011;57635;49.194;12.104;2023-08-01T07:20:11;6.03;;;5.43;;
8088;SDS011;57635;49.194;12.104;2023-08-01T07:22:38;5.53;;;5.03;;
8088;SDS011;57635;49.194;12.104;2023-08-01T07:25:09;7.50;;;6.67;;
8088;SDS011;57635;49.194;12.104;2023-08-01T07:27:38;5.43;;;5.03;;
8088;SDS011;57635;49.194;12.104;2023-08-01T07:30:06;6.13;;;5.63;;
8088;SDS011;57635;49.194;12.104;2023-08-01T07:32:35;6.20;;;5.60;;
8088;SDS011;57635;49.194;12.104;2023-08-01T07:35:04;5.60;;;5.10;;
8088;SDS011;57635;49.194;12.104;2023-08-01T07:37:32;5.57;;;5.10;;
8088;SDS011;57635;49.194;12.104;2023-08-01T07:40:00;6.00;;;5.43;;
8088;SDS011;57635;49.194;12.104;2023-08-01T07:42:29;6.03;;;5.53;;
8088;SDS011;57635;49.194;12.104;2023-08-01T07:44:57;6.00;;;5.50;;
8088;SDS011;57635;49.194;12.104;2023-08-01T07:47:25;5.63;;;5.03;;
8088;SDS011;57635;49.194;12.104;2023-08-01T07:52:34;5.33;;;4.93;;
8088;SDS011;57635;49.194;12.104;2023-08-01T07:55:02;5.50;;;5.10;;
8088;SDS011;57635;49.194;12.104;2023-08-01T07:57:31;6.23;;;5.63;;
8088;SDS011;57635;49.194;12.104;2023-08-01T07:59:59;5.70;;;5.20;;
8088;SDS011;57635;49.194;12.104;2023-08-01T08:02:27;6.13;;;5.63;;
8088;SDS011;57635;49.194;12.104;2023-08-01T08:04:55;5.20;;;4.80;;
8088;SDS011;57635;49.194;12.104;2023-08-01T08:07:22;5.43;;;5.03;;
8088;SDS011;57635;49.194;12.104;2023-08-01T08:09:50;5.60;;;5.10;;
8088;SDS011;57635;49.194;12.104;2023-08-01T08:12:21;6.00;;;5.40;;
8088;SDS011;57635;49.194;12.104;2023-08-01T08:14:50;5.67;;;5.27;;
8088;SDS011;57635;49.194;12.104;2023-08-01T08:17:18;5.77;;;5.20;;
8088;SDS011;57635;49.194;12.104;2023-08-01T08:19:46;6.27;;;5.50;;
8088;SDS011;57635;49.194;12.104;2023-08-01T08:22:14;5.27;;;4.87;;
8088;SDS011;57635;49.194;12.104;2023-08-01T08:24:41;8.20;;;5.90;;
8088;SDS011;57635;49.194;12.104;2023-08-01T08:27:09;6.27;;;5.80;;
8088;SDS011;57635;49.194;12.104;2023-08-01T08:29:37;5.97;;;5.53;;
8088;SDS011;57635;49.194;12.104;2023-08-01T08:32:06;6.33;;;5.70;;
8088;SDS011;57635;49.194;12.104;2023-08-01T08:34:34;6.73;;;5.80;;
8088;SDS011;57635;49.194;12.104;2023-08-01T08:37:02;6.47;;;5.77;;
8088;SDS011;57635;49.194;12.104;2023-08-01T08:39:30;6.20;;;5.70;;
8088;SDS011;57635;49.194;12.104;2023-08-01T08:41:58;6.17;;;5.67;;
8088;SDS011;57635;49.194;12.104;2023-08-01T08:44:26;6.73;;;6.03;;
8088;SDS011;57635;49.194;12.104;2023-08-01T08:46:58;6.13;;;5.57;;
8088;SDS011;57635;49.194;12.104;2023-08-01T08:49:30;6.03;;;5.43;;
8088;SDS011;57635;49.194;12.104;2023-08-01T08:51:59;6.77;;;6.03;;
8088;SDS011;57635;49.194;12.104;2023-08-01T08:54:27;6.83;;;6.17;;
8088;SDS011;57635;49.194;12.104;2023-08-01T08:56:56;6.10;;;5.50;;
8088;SDS011;57635;49.194;12.104;2023-08-01T08:59:24;6.20;;;5.67;;
8088;SDS011;57635;49.194;12.104;2023-08-01T09:01:52;6.00;;;5.50;;
8088;SDS011;57635;49.194;12.104;2023-08-01T09:04:20;6.50;;;5.87;;
8088;SDS011;57635;49.194;12.104;2023-08-01T09:06:49;6.43;;;5.83;;
8088;SDS011;57635;49.194;12.104;2023-08-01T09:09:19;6.30;;;5.67;;
8088;SDS011;57635;49.194;12.104;2023-08-01T09:11:49;7.53;;;6.93;;
8088;SDS011;57635;49.194;12.104;2023-08-01T09:14:18;7.13;;;6.43;;
8088;SDS011;57635;49.194;12.104;2023-08-01T09:16:46;7.93;;;5.70;;
8088;SDS011;57635;49.194;12.104;2023-08-01T09:19:16;7.60;;;5.90;;
8088;SDS011;57635;49.194;12.104;2023-08-01T09:21:44;7.30;;;6.60;;
8088;SDS011;57635;49.194;12.104;2023-08-01T09:24:14;6.83;;;6.23;;
8088;SDS011;57635;49.194;12.104;2023-08-01T09:26:42;6.97;;;5.97;;
8088;SDS011;57635;49.194;12.104;2023-08-01T09:29:10;5.20;;;4.80;;
8088;SDS011;57635;49.194;12.104;2023-08-01T09:31:39;6.07;;;5.57;;
8088;SDS011;57635;49.194;12.104;2023-08-01T09:34:17;6.10;;;5.60;;
8088;SDS011;57635;49.194;12.104;2023-08-01T09:36:46;6.73;;;6.10;;
8088;SDS011;57635;49.194;12.104;2023-08-01T09:39:16;6.53;;;6.00;;
8088;SDS011;57635;49.194;12.104;2023-08-01T09:41:45;6.30;;;5.80;;
8088;SDS011;57635;49.194;12.104;2023-08-01T09:44:14;6.50;;;5.87;;
8088;SDS011;57635;49.194;12.104;2023-08-01T09:46:43;5.80;;;5.33;;
8088;SDS011;57635;49.194;12.104;2023-08-01T09:49:11;6.33;;;5.17;;
8088;SDS011;57635;49.194;12.104;2023-08-01T09:51:46;5.80;;;5.20;;
8088;SDS011;57635;49.194;12.104;2023-08-01T09:54:15;5.87;;;5.23;;
8088;SDS011;57635;49.194;12.104;2023-08-01T09:56:45;5.67;;;5.23;;
8088;SDS011;57635;49.194;12.104;2023-08-01T09:59:13;5.60;;;4.57;;
8088;SDS011;57635;49.194;12.104;2023-08-01T10:01:42;5.60;;;5.00;;
8088;SDS011;57635;49.194;12.104;2023-08-01T10:04:11;5.40;;;5.00;;
8088;SDS011;57635;49.194;12.104;2023-08-01T10:06:41;7.17;;;5.67;;
8088;SDS011;57635;49.194;12.104;2023-08-01T10:09:10;5.40;;;4.90;;
8088;SDS011;57635;49.194;12.104;2023-08-01T10:11:39;6.13;;;5.20;;
8088;SDS011;57635;49.194;12.104;2023-08-01T10:14:07;6.23;;;5.67;;
8088;SDS011;57635;49.194;12.104;2023-08-01T10:16:35;6.57;;;5.40;;
8088;SDS011;57635;49.194;12.104;2023-08-01T10:19:04;5.93;;;4.57;;
8088;SDS011;57635;49.194;12.104;2023-08-01T10:21:33;5.33;;;4.90;;
8088;SDS011;57635;49.194;12.104;2023-08-01T10:24:01;5.17;;;4.77;;
8088;SDS011;57635;49.194;12.104;2023-08-01T10:26:30;4.80;;;4.40;;
8088;SDS011;57635;49.194;12.104;2023-08-01T10:29:00;5.20;;;4.70;;
8088;SDS011;57635;49.194;12.104;2023-08-01T10:31:28;4.60;;;4.20;;
8088;SDS011;57635;49.194;12.104;2023-08-01T10:34:03;4.67;;;4.20;;
8088;SDS011;57635;49.194;12.104;2023-08-01T10:36:32;5.10;;;4.60;;
8088;SDS011;57635;49.194;12.104;2023-08-01T10:39:00;5.60;;;5.10;;
8088;SDS011;57635;49.194;12.104;2023-08-01T10:41:29;4.50;;;4.10;;
8088;SDS011;57635;49.194;12.104;2023-08-01T10:44:09;5.80;;;5.30;;
8088;SDS011;57635;49.194;12.104;2023-08-01T10:46:45;5.90;;;5.17;;
8088;SDS011;57635;49.194;12.104;2023-08-01T10:49:14;5.10;;;4.70;;
8088;SDS011;57635;49.194;12.104;2023-08-01T10:51:42;5.07;;;4.57;;
8088;SDS011;57635;49.194;12.104;2023-08-01T10:54:19;5.10;;;4.60;;
8088;SDS011;57635;49.194;12.104;2023-08-01T10:56:49;4.80;;;4.50;;
8088;SDS011;57635;49.194;12.104;2023-08-01T10:59:20;5.40;;;4.90;;
8088;SDS011;57635;49.194;12.104;2023-08-01T11:01:49;5.33;;;4.83;;
8088;SDS011;57635;49.194;12.104;2023-08-01T11:04:17;4.83;;;4.33;;
8088;SDS011;57635;49.194;12.104;2023-08-01T11:06:45;7.17;;;5.60;;
8088;SDS011;57635;49.194;12.104;2023-08-01T11:09:17;4.90;;;4.50;;
8088;SDS011;57635;49.194;12.104;2023-08-01T11:11:47;5.77;;;5.23;;
8088;SDS011;57635;49.194;12.104;2023-08-01T11:14:20;5.30;;;4.87;;
8088;SDS011;57635;49.194;12.104;2023-08-01T11:16:49;5.03;;;4.40;;
8088;SDS011;57635;49.194;12.104;2023-08-01T11:19:17;5.57;;;5.07;;
8088;SDS011;57635;49.194;12.104;2023-08-01T11:21:46;5.00;;;4.43;;
8088;SDS011;57635;49.194;12.104;2023-08-01T11:24:15;5.37;;;4.97;;
8088;SDS011;57635;49.194;12.104;2023-08-01T11:26:43;5.97;;;5.07;;
8088;SDS011;57635;49.194;12.104;2023-08-01T11:29:11;5.17;;;4.67;;
8088;SDS011;57635;49.194;12.104;2023-08-01T11:31:41;5.33;;;4.93;;
8088;SDS011;57635;49.194;12.104;2023-08-01T11:34:09;5.47;;;4.97;;
8088;SDS011;57635;49.194;12.104;2023-08-01T11:36:37;4.90;;;4.50;;
8088;SDS011;57635;49.194;12.104;2023-08-01T11:39:05;9.27;;;8.33;;
8088;SDS011;57635;49.194;12.104;2023-08-01T11:41:33;5.70;;;5.10;;
8088;SDS011;57635;49.194;12.104;2023-08-01T11:44:01;5.57;;;5.17;;
8088;SDS011;57635;49.194;12.104;2023-08-01T11:46:30;5.37;;;5.00;;
8088;SDS011;57635;49.194;12.104;2023-08-01T11:49:00;5.30;;;4.90;;
8088;SDS011;57635;49.194;12.104;2023-08-01T11:51:28;5.70;;;5.13;;
8088;SDS011;57635;49.194;12.104;2023-08-01T11:53:59;5.40;;;5.00;;
8088;SDS011;57635;49.194;12.104;2023-08-01T11:56:27;5.50;;;4.73;;
8088;SDS011;57635;49.194;12.104;2023-08-01T11:58:55;5.00;;;4.60;;
8088;SDS011;57635;49.194;12.104;2023-08-01T12:01:23;4.13;;;3.83;;
8088;SDS011;57635;49.194;12.104;2023-08-01T12:03:51;5.67;;;5.17;;
8088;SDS011;57635;49.194;12.104;2023-08-01T12:06:22;4.63;;;4.20;;
8088;SDS011;57635;49.194;12.104;2023-08-01T12:08:50;5.27;;;4.87;;
8088;SDS011;57635;49.194;12.104;2023-08-01T12:11:19;5.90;;;4.53;;
8088;SDS011;57635;49.194;12.104;2023-08-01T12:13:48;3.77;;;3.47;;
8088;SDS011;57635;49.194;12.104;2023-08-01T12:16:27;5.37;;;4.17;;
8088;SDS011;57635;49.194;12.104;2023-08-01T12:18:55;3.97;;;3.67;;
8088;SDS011;57635;49.194;12.104;2023-08-01T12:21:27;4.00;;;3.60;;
8088;SDS011;57635;49.194;12.104;2023-08-01T12:23:55;4.13;;;3.83;;
8088;SDS011;57635;49.194;12.104;2023-08-01T12:26:23;3.93;;;3.63;;
8088;SDS011;57635;49.194;12.104;2023-08-01T12:28:51;3.67;;;3.37;;
8088;SDS011;57635;49.194;12.104;2023-08-01T12:31:19;3.63;;;3.33;;
8088;SDS011;57635;49.194;12.104;2023-08-01T12:33:47;4.20;;;3.90;;
8088;SDS011;57635;49.194;12.104;2023-08-01T12:36:15;3.80;;;3.50;;
8088;SDS011;57635;49.194;12.104;2023-08-01T12:38:45;3.33;;;3.03;;
8088;SDS011;57635;49.194;12.104;2023-08-01T12:41:12;3.97;;;3.60;;
8088;SDS011;57635;49.194;12.104;2023-08-01T12:43:40;3.90;;;3.60;;
8088;SDS011;57635;49.194;12.104;2023-08-01T12:46:09;3.70;;;3.40;;
8088;SDS011;57635;49.194;12.104;2023-08-01T12:48:36;3.67;;;3.37;;
8088;SDS011;57635;49.194;12.104;2023-08-01T12:51:04;3.83;;;3.53;;
8088;SDS011;57635;49.194;12.104;2023-08-01T12:53:32;3.27;;;2.97;;
8088;SDS011;57635;49.194;12.104;2023-08-01T12:56:01;3.50;;;2.93;;
8088;SDS011;57635;49.194;12.104;2023-08-01T12:58:28;3.47;;;3.27;;
8088;SDS011;57635;49.194;12.104;2023-08-01T13:00:56;3.03;;;2.83;;
8088;SDS011;57635;49.194;12.104;2023-08-01T13:03:24;4.00;;;2.70;;
8088;SDS011;57635;49.194;12.104;2023-08-01T13:05:54;3.17;;;2.97;;
8088;SDS011;57635;49.194;12.104;2023-08-01T13:08:23;2.90;;;2.70;;
8088;SDS011;57635;49.194;12.104;2023-08-01T13:10:51;2.67;;;2.50;;
8088;SDS011;57635;49.194;12.104;2023-08-01T13:13:20;2.83;;;2.63;;
8088;SDS011;57635;49.194;12.104;2023-08-01T13:15:48;2.87;;;2.40;;
8088;SDS011;57635;49.194;12.104;2023-08-01T13:18:16;2.30;;;2.20;;
8088;SDS011;57635;49.194;12.104;2023-08-01T13:20:44;4.13;;;3.73;;
8088;SDS011;57635;49.194;12.104;2023-08-01T13:23:12;2.40;;;2.27;;
8088;SDS011;57635;49.194;12.104;2023-08-01T13:25:39;2.73;;;2.53;;
8088;SDS011;57635;49.194;12.104;2023-08-01T13:28:07;2.17;;;2.03;;
8088;SDS011;57635;49.194;12.104;2023-08-01T13:30:36;2.37;;;1.80;;
8088;SDS011;57635;49.194;12.104;2023-08-01T13:33:04;4.37;;;2.50;;
8088;SDS011;57635;49.194;12.104;2023-08-01T13:35:32;3.07;;;2.33;;
8088;SDS011;57635;49.194;12.104;2023-08-01T13:37:59;2.93;;;2.37;;
8088;SDS011;57635;49.194;12.104;2023-08-01T13:40:27;1.90;;;1.80;;
8088;SDS011;57635;49.194;12.104;2023-08-01T13:42:55;1.70;;;1.60;;
8088;SDS011;57635;49.194;12.104;2023-08-01T13:45:22;1.73;;;1.63;;
8088;SDS011;57635;49.194;12.104;2023-08-01T13:47:52;2.57;;;2.00;;
8088;SDS011;57635;49.194;12.104;2023-08-01T13:50:19;5.37;;;2.17;;
8088;SDS011;57635;49.194;12.104;2023-08-01T13:52:47;5.00;;;3.10;;
8088;SDS011;57635;49.194;12.104;2023-08-01T13:55:15;1.93;;;1.77;;
8088;SDS011;57635;49.194;12.104;2023-08-01T13:57:43;3.17;;;2.87;;
8088;SDS011;57635;49.194;12.104;2023-08-01T14:00:11;1.50;;;1.40;;
8088;SDS011;57635;49.194;12.104;2023-08-01T14:02:40;1.67;;;1.53;;
8088;SDS011;57635;49.194;12.104;2023-08-01T14:05:09;2.03;;;1.40;;
8088;SDS011;57635;49.194;12.104;2023-08-01T14:07:40;1.90;;;1.80;;
8088;SDS011;57635;49.194;12.104;2023-08-01T14:10:09;1.90;;;1.80;;
8088;SDS011;57635;49.194;12.104;2023-08-01T14:12:37;2.03;;;1.93;;
8088;SDS011;57635;49.194;12.104;2023-08-01T14:15:05;3.83;;;1.93;;
8088;SDS011;57635;49.194;12.104;2023-08-01T14:17:34;2.17;;;2.07;;
8088;SDS011;57635;49.194;12.104;2023-08-01T14:20:01;1.43;;;1.40;;
8088;SDS011;57635;49.194;12.104;2023-08-01T14:22:32;1.40;;;1.30;;
8088;SDS011;57635;49.194;12.104;2023-08-01T14:25:00;2.10;;;2.00;;
8088;SDS011;57635;49.194;12.104;2023-08-01T14:27:28;4.10;;;3.00;;
8088;SDS011;57635;49.194;12.104;2023-08-01T14:29:56;3.20;;;2.07;;
8088;SDS011;57635;49.194;12.104;2023-08-01T14:32:24;2.00;;;1.90;;
8088;SDS011;57635;49.194;12.104;2023-08-01T14:34:51;2.53;;;2.33;;
8088;SDS011;57635;49.194;12.104;2023-08-01T14:37:19;2.50;;;1.77;;
8088;SDS011;57635;49.194;12.104;2023-08-01T14:39:51;3.87;;;2.87;;
8088;SDS011;57635;49.194;12.104;2023-08-01T14:42:19;2.17;;;2.03;;
8088;SDS011;57635;49.194;12.104;2023-08-01T14:44:51;2.50;;;2.30;;
8088;SDS011;57635;49.194;12.104;2023-08-01T14:47:19;2.40;;;2.20;;
8088;SDS011;57635;49.194;12.104;2023-08-01T14:49:46;1.90;;;1.80;;
8088;SDS011;57635;49.194;12.104;2023-08-01T14:52:14;1.77;;;1.67;;
8088;SDS011;57635;49.194;12.104;2023-08-01T14:54:42;1.80;;;1.70;;
8088;SDS011;57635;49.194;12.104;2023-08-01T14:57:11;1.80;;;1.67;;